Contargo III & Xii — PD5101 — position and weather

sailwx.info

Track history (hours):
 
Tides and Currents Weather Stations Pressure Air Temp Water Temp Dewpoint Dewpoint Depression Visibility Wind Speed Wind Dir Waves Ship Positions

Contargo III & Xii

Last reported at 2014-Nov-23 00:17 UTC. Time now 2014-Nov-23 04:42 UTC.
Position N 49°27' E 008°27'.

Length 182 m.

Type: Ship. MMSI: 244670090.

Date/timePositionNaut miles runAvg speedWind from/ knotsBaromVisibWave heightAir tempDewpointWater temp
2014-Nov-23 00:17N 49°27' E 008°27'7 6.7
2014-Nov-22 23:13N 49°20' E 008°28'4 6.5
2014-Nov-22 22:32N 49°16' E 008°27'9 9.0
2014-Nov-22 21:33N 49°08' E 008°22'10 9.8
2014-Nov-22 20:33N 48°59' E 008°16'10 9.6
2014-Nov-22 19:33N 48°51' E 008°07'2 2.1
2014-Nov-22 18:23N 48°49' E 008°06'5 6.3
2014-Nov-22 17:33N 48°46' E 007°60'6 5.1
2014-Nov-22 16:28N 48°41' E 007°55'63 2.7
2014-Nov-21 17:19N 47°40' E 007°31'2 2.1
2014-Nov-21 16:33N 47°39' E 007°32'0 0.1
2014-Nov-21 15:33N 47°39' E 007°32'4 3.6
2014-Nov-21 14:33N 47°36' E 007°36'1 1.2
2014-Nov-21 13:33N 47°35' E 007°36'0 0.0
2014-Nov-21 12:33N 47°35' E 007°36'1 1.0
2014-Nov-21 11:31N 47°36' E 007°36'0 0.3
2014-Nov-21 10:33N 47°36' E 007°35'0 0.0
2014-Nov-21 09:33N 47°36' E 007°35'0 0.0
2014-Nov-21 08:32N 47°36' E 007°35'0 0.0
2014-Nov-21 07:34N 47°36' E 007°35'0 0.0
2014-Nov-21 06:33N 47°36' E 007°35'0 0.0
2014-Nov-21 05:33N 47°36' E 007°35'0 0.0
2014-Nov-21 04:33N 47°36' E 007°35'0 0.0
2014-Nov-21 03:33N 47°36' E 007°35'0 0.0
2014-Nov-21 02:33N 47°36' E 007°35'0 0.0
2014-Nov-21 01:33N 47°36' E 007°35'0 0.0
2014-Nov-21 00:33N 47°36' E 007°35'0 0.0
2014-Nov-20 23:33N 47°36' E 007°35'0 0.0
2014-Nov-20 22:33N 47°36' E 007°35'0 0.0
2014-Nov-20 21:33N 47°36' E 007°35'0 0.0
2014-Nov-20 20:33N 47°36' E 007°35'0 0.2
2014-Nov-20 19:33N 47°37' E 007°35'4 3.7
2014-Nov-20 18:29N 47°39' E 007°31'0 0.0
2014-Nov-19 14:28N 47°39' E 007°32'5 5.4
2014-Nov-19 13:33N 47°35' E 007°36'0 0.0
2014-Nov-19 12:33N 47°35' E 007°36'0 0.0
2014-Nov-19 11:33N 47°35' E 007°36'0 0.1
2014-Nov-19 10:33N 47°35' E 007°36'1 1.4
2014-Nov-19 09:33N 47°36' E 007°35'0 0.0
2014-Nov-19 08:33N 47°36' E 007°35'0 0.0
2014-Nov-19 07:33N 47°36' E 007°35'0 0.0
2014-Nov-19 06:33N 47°36' E 007°35'0 0.0
2014-Nov-19 05:33N 47°36' E 007°35'3 3.2
2014-Nov-19 04:33N 47°39' E 007°32'64 2.9
2014-Nov-18 06:13N 48°41' E 007°55'2 3.3
2014-Nov-18 05:33N 48°43' E 007°57'4 3.6
2014-Nov-18 04:32N 48°46' E 008°01'5 4.7
2014-Nov-18 03:33N 48°49' E 008°06'3 2.6
2014-Nov-18 02:33N 48°51' E 008°07'3 3.1
2014-Nov-18 01:33N 48°54' E 008°09'4 3.5
2014-Nov-18 00:33N 48°57' E 008°12'3 3.3
2014-Nov-17 23:33N 48°59' E 008°16'4 4.0
2014-Nov-17 22:33N 49°03' E 008°18'4 4.3
2014-Nov-17 21:33N 49°06' E 008°22'4 4.3
2014-Nov-17 20:33N 49°11' E 008°22'4 4.2
2014-Nov-17 19:33N 49°15' E 008°24'4 4.4
2014-Nov-17 18:33N 49°17' E 008°29'3 3.3
2014-Nov-17 17:30N 49°21' E 008°29'105 3.1
2014-Nov-16 08:13N 50°49' E 007°01'2 3.0
2014-Nov-16 07:29N 50°51' E 006°59'4 3.7
2014-Nov-16 06:29N 50°53' E 007°03'3 3.3
2014-Nov-16 05:29N 50°55' E 006°58'10 3.3
2014-Nov-16 02:21N 51°05' E 006°51'3 3.2
2014-Nov-16 01:33N 51°07' E 006°52'3 2.8
2014-Nov-16 00:32N 51°10' E 006°50'2 2.0
2014-Nov-15 23:33N 51°11' E 006°48'3 3.1
2014-Nov-15 22:33N 51°13' E 006°44'2 2.2
2014-Nov-15 21:33N 51°14' E 006°46'3 3.3
2014-Nov-15 20:33N 51°17' E 006°43'3 3.4
2014-Nov-15 19:33N 51°20' E 006°42'29 3.2
2014-Nov-15 10:30N 51°46' E 006°20'14 2.3
2014-Nov-15 04:14N 51°53' E 006°00'7 4.2
2014-Nov-15 02:33N 51°52' E 005°49'5 5.6
2014-Nov-15 01:34N 51°54' E 005°40'6 5.5
2014-Nov-15 00:33N 51°54' E 005°31'5 5.0
2014-Nov-14 23:33N 51°51' E 005°25'4 4.1
2014-Nov-14 22:33N 51°49' E 005°18'6 5.7
2014-Nov-14 21:33N 51°49' E 005°09'7 6.6
2014-Nov-14 20:34N 51°49' E 004°59'8 8.1
2014-Nov-14 19:34N 51°49' E 004°46'7 7.2
2014-Nov-14 18:34N 51°49' E 004°34'8 7.9
2014-Nov-14 17:33N 51°51' E 004°22'7 7.2
2014-Nov-14 16:33N 51°55' E 004°12'7 7.1
2014-Nov-14 15:33N 51°58' E 004°02'0 0.1
2014-Nov-14 14:33N 51°58' E 004°02'2 1.0
2014-Nov-14 12:33N 51°57' E 004°05'0 0.1
2014-Nov-14 11:33N 51°57' E 004°05'2 1.8
2014-Nov-14 10:33N 51°56' E 004°02'0 0.0
2014-Nov-14 09:33N 51°56' E 004°02'0 0.0
2014-Nov-14 08:33N 51°56' E 004°02'0 0.0
2014-Nov-14 07:33N 51°56' E 004°02'0 0.0
2014-Nov-14 06:33N 51°56' E 004°02'0 0.0
2014-Nov-14 05:33N 51°56' E 004°02'0 0.0
2014-Nov-14 04:33N 51°56' E 004°02'0 0.0
2014-Nov-14 03:33N 51°56' E 004°02'0 0.0
2014-Nov-14 02:32N 51°56' E 004°02'0 0.0
2014-Nov-14 01:33N 51°56' E 004°02'0 0.0
2014-Nov-14 00:33N 51°56' E 004°02'0 0.0
2014-Nov-13 23:33N 51°56' E 004°02'0 0.0
2014-Nov-13 22:32N 51°56' E 004°02'0 0.0
2014-Nov-13 21:33N 51°56' E 004°02'0 0.0
2014-Nov-13 20:33N 51°56' E 004°02'0 0.0
2014-Nov-13 19:33N 51°56' E 004°02'0 0.0
2014-Nov-13 18:33N 51°56' E 004°02'1 0.8
2014-Nov-13 17:33N 51°56' E 004°03'2 1.7
2014-Nov-13 16:33N 51°57' E 004°02'5 4.8
2014-Nov-13 15:33N 51°56' E 004°09'7 7.3
2014-Nov-13 14:33N 51°52' E 004°20'2 1.9
2014-Nov-13 13:33N 51°54' E 004°21'3 3.0
2014-Nov-13 12:33N 51°53' E 004°26'1 0.6
2014-Nov-13 11:34N 51°53' E 004°26'1 1.3
2014-Nov-13 10:33N 51°54' E 004°26'1 1.0
2014-Nov-13 09:33N 51°53' E 004°24'0 0.0
2014-Nov-13 08:33N 51°53' E 004°24'1 1.0
2014-Nov-13 07:28N 51°53' E 004°26'0 0.2
2014-Nov-13 06:33N 51°53' E 004°25'0 0.2
2014-Nov-13 05:33N 51°53' E 004°25'1 0.3
2014-Nov-13 01:33N 51°54' E 004°24'8 8.1
2014-Nov-13 00:33N 51°53' E 004°37'  
Track history (hours):
 
Tides and Currents Weather Stations Pressure Air Temp Water Temp Dewpoint Dewpoint Depression Visibility Wind Speed Wind Dir Waves Ship Positions

Contargo III & Xii

Last reported at 2014-Nov-23 00:17 UTC. Time now 2014-Nov-23 04:42 UTC.
Position N 49°27' E 008°27'.

Length 182 m.

Type: Ship. MMSI: 244670090.

Date/timePositionNaut miles runAvg speedWind from/ knotsBaromVisibWave heightAir tempDewpointWater temp
2014-Nov-23 00:17N 49°27' E 008°27'7 6.7
2014-Nov-22 23:13N 49°20' E 008°28'4 6.5
2014-Nov-22 22:32N 49°16' E 008°27'9 9.0
2014-Nov-22 21:33N 49°08' E 008°22'10 9.8
2014-Nov-22 20:33N 48°59' E 008°16'10 9.6
2014-Nov-22 19:33N 48°51' E 008°07'2 2.1
2014-Nov-22 18:23N 48°49' E 008°06'5 6.3
2014-Nov-22 17:33N 48°46' E 007°60'6 5.1
2014-Nov-22 16:28N 48°41' E 007°55'63 2.7
2014-Nov-21 17:19N 47°40' E 007°31'2 2.1
2014-Nov-21 16:33N 47°39' E 007°32'0 0.1
2014-Nov-21 15:33N 47°39' E 007°32'4 3.6
2014-Nov-21 14:33N 47°36' E 007°36'1 1.2
2014-Nov-21 13:33N 47°35' E 007°36'0 0.0
2014-Nov-21 12:33N 47°35' E 007°36'1 1.0
2014-Nov-21 11:31N 47°36' E 007°36'0 0.3
2014-Nov-21 10:33N 47°36' E 007°35'0 0.0
2014-Nov-21 09:33N 47°36' E 007°35'0 0.0
2014-Nov-21 08:32N 47°36' E 007°35'0 0.0
2014-Nov-21 07:34N 47°36' E 007°35'0 0.0
2014-Nov-21 06:33N 47°36' E 007°35'0 0.0
2014-Nov-21 05:33N 47°36' E 007°35'0 0.0
2014-Nov-21 04:33N 47°36' E 007°35'0 0.0
2014-Nov-21 03:33N 47°36' E 007°35'0 0.0
2014-Nov-21 02:33N 47°36' E 007°35'0 0.0
2014-Nov-21 01:33N 47°36' E 007°35'0 0.0
2014-Nov-21 00:33N 47°36' E 007°35'0 0.0
2014-Nov-20 23:33N 47°36' E 007°35'0 0.0
2014-Nov-20 22:33N 47°36' E 007°35'0 0.0
2014-Nov-20 21:33N 47°36' E 007°35'0 0.0
2014-Nov-20 20:33N 47°36' E 007°35'0 0.2
2014-Nov-20 19:33N 47°37' E 007°35'4 3.7
2014-Nov-20 18:29N 47°39' E 007°31'0 0.0
2014-Nov-19 14:28N 47°39' E 007°32'5 5.4
2014-Nov-19 13:33N 47°35' E 007°36'0 0.0
2014-Nov-19 12:33N 47°35' E 007°36'0 0.0
2014-Nov-19 11:33N 47°35' E 007°36'0 0.1
2014-Nov-19 10:33N 47°35' E 007°36'1 1.4
2014-Nov-19 09:33N 47°36' E 007°35'0 0.0
2014-Nov-19 08:33N 47°36' E 007°35'0 0.0
2014-Nov-19 07:33N 47°36' E 007°35'0 0.0
2014-Nov-19 06:33N 47°36' E 007°35'0 0.0
2014-Nov-19 05:33N 47°36' E 007°35'3 3.2
2014-Nov-19 04:33N 47°39' E 007°32'64 2.9
2014-Nov-18 06:13N 48°41' E 007°55'2 3.3
2014-Nov-18 05:33N 48°43' E 007°57'4 3.6
2014-Nov-18 04:32N 48°46' E 008°01'5 4.7
2014-Nov-18 03:33N 48°49' E 008°06'3 2.6
2014-Nov-18 02:33N 48°51' E 008°07'3 3.1
2014-Nov-18 01:33N 48°54' E 008°09'4 3.5
2014-Nov-18 00:33N 48°57' E 008°12'3 3.3
2014-Nov-17 23:33N 48°59' E 008°16'4 4.0
2014-Nov-17 22:33N 49°03' E 008°18'4 4.3
2014-Nov-17 21:33N 49°06' E 008°22'4 4.3
2014-Nov-17 20:33N 49°11' E 008°22'4 4.2
2014-Nov-17 19:33N 49°15' E 008°24'4 4.4
2014-Nov-17 18:33N 49°17' E 008°29'3 3.3
2014-Nov-17 17:30N 49°21' E 008°29'105 3.1
2014-Nov-16 08:13N 50°49' E 007°01'2 3.0
2014-Nov-16 07:29N 50°51' E 006°59'4 3.7
2014-Nov-16 06:29N 50°53' E 007°03'3 3.3
2014-Nov-16 05:29N 50°55' E 006°58'10 3.3
2014-Nov-16 02:21N 51°05' E 006°51'3 3.2
2014-Nov-16 01:33N 51°07' E 006°52'3 2.8
2014-Nov-16 00:32N 51°10' E 006°50'2 2.0
2014-Nov-15 23:33N 51°11' E 006°48'3 3.1
2014-Nov-15 22:33N 51°13' E 006°44'2 2.2
2014-Nov-15 21:33N 51°14' E 006°46'3 3.3
2014-Nov-15 20:33N 51°17' E 006°43'3 3.4
2014-Nov-15 19:33N 51°20' E 006°42'29 3.2
2014-Nov-15 10:30N 51°46' E 006°20'14 2.3
2014-Nov-15 04:14N 51°53' E 006°00'7 4.2
2014-Nov-15 02:33N 51°52' E 005°49'5 5.6
2014-Nov-15 01:34N 51°54' E 005°40'6 5.5
2014-Nov-15 00:33N 51°54' E 005°31'5 5.0
2014-Nov-14 23:33N 51°51' E 005°25'4 4.1
2014-Nov-14 22:33N 51°49' E 005°18'6 5.7
2014-Nov-14 21:33N 51°49' E 005°09'7 6.6
2014-Nov-14 20:34N 51°49' E 004°59'8 8.1
2014-Nov-14 19:34N 51°49' E 004°46'7 7.2
2014-Nov-14 18:34N 51°49' E 004°34'8 7.9
2014-Nov-14 17:33N 51°51' E 004°22'7 7.2
2014-Nov-14 16:33N 51°55' E 004°12'7 7.1
2014-Nov-14 15:33N 51°58' E 004°02'0 0.1
2014-Nov-14 14:33N 51°58' E 004°02'2 1.0
2014-Nov-14 12:33N 51°57' E 004°05'0 0.1
2014-Nov-14 11:33N 51°57' E 004°05'2 1.8
2014-Nov-14 10:33N 51°56' E 004°02'0 0.0
2014-Nov-14 09:33N 51°56' E 004°02'0 0.0
2014-Nov-14 08:33N 51°56' E 004°02'0 0.0
2014-Nov-14 07:33N 51°56' E 004°02'0 0.0
2014-Nov-14 06:33N 51°56' E 004°02'0 0.0
2014-Nov-14 05:33N 51°56' E 004°02'0 0.0
2014-Nov-14 04:33N 51°56' E 004°02'0 0.0
2014-Nov-14 03:33N 51°56' E 004°02'0 0.0
2014-Nov-14 02:32N 51°56' E 004°02'0 0.0
2014-Nov-14 01:33N 51°56' E 004°02'0 0.0
2014-Nov-14 00:33N 51°56' E 004°02'0 0.0
2014-Nov-13 23:33N 51°56' E 004°02'0 0.0
2014-Nov-13 22:32N 51°56' E 004°02'0 0.0
2014-Nov-13 21:33N 51°56' E 004°02'0 0.0
2014-Nov-13 20:33N 51°56' E 004°02'0 0.0
2014-Nov-13 19:33N 51°56' E 004°02'0 0.0
2014-Nov-13 18:33N 51°56' E 004°02'1 0.8
2014-Nov-13 17:33N 51°56' E 004°03'2 1.7
2014-Nov-13 16:33N 51°57' E 004°02'5 4.8
2014-Nov-13 15:33N 51°56' E 004°09'7 7.3
2014-Nov-13 14:33N 51°52' E 004°20'2 1.9
2014-Nov-13 13:33N 51°54' E 004°21'3 3.0
2014-Nov-13 12:33N 51°53' E 004°26'1 0.6
2014-Nov-13 11:34N 51°53' E 004°26'1 1.3
2014-Nov-13 10:33N 51°54' E 004°26'1 1.0
2014-Nov-13 09:33N 51°53' E 004°24'0 0.0
2014-Nov-13 08:33N 51°53' E 004°24'1 1.0
2014-Nov-13 07:28N 51°53' E 004°26'0 0.2
2014-Nov-13 06:33N 51°53' E 004°25'0 0.2
2014-Nov-13 05:33N 51°53' E 004°25'1 0.3
2014-Nov-13 01:33N 51°54' E 004°24'8 8.1
2014-Nov-13 00:33N 51°53' E 004°37'  

Dump ship's entire track history